Time;durP1;ratioP1;P1;durP2;ratioP2;P2;SDS_P1;SDS_P2;PMS_P1;PMS_P2;Temp;Humidity;BMP_temperature;BMP_pressure;BME280_temperature;BME280_humidity;BME280_pressure;Samples;Min_cycle;Max_cycle;Signal;HPM_P1;HPM_P2
2021/06/09 00:01:06;;;;;;;9.23;8.13;;;18.50;99.90;;;;;;5074434;28;20207;-57
2021/06/09 00:03:32;;;;;;;9.87;8.90;;;18.50;99.90;;;;;;5073023;28;20276;-58
2021/06/09 00:05:58;;;;;;;10.30;9.40;;;18.40;99.90;;;;;;5074697;28;20177;-58
2021/06/09 00:08:24;;;;;;;9.67;8.87;;;18.30;99.90;;;;;;5073770;28;20286;-53
2021/06/09 00:10:55;;;;;;;10.30;9.10;;;18.40;99.90;;;;;;5074259;28;20239;-58
2021/06/09 00:13:26;;;;;;;9.87;8.87;;;18.40;99.90;;;;;;5074571;28;20178;-55
2021/06/09 00:15:52;;;;;;;9.73;8.47;;;18.40;99.90;;;;;;5072758;28;20188;-58
2021/06/09 00:18:18;;;;;;;8.87;8.07;;;18.40;99.90;;;;;;5074232;28;20188;-55
2021/06/09 00:20:44;;;;;;;9.63;8.73;;;18.40;99.90;;;;;;5073058;28;20183;-56
2021/06/09 00:23:11;;;;;;;10.03;8.60;;;18.30;99.90;;;;;;5073976;28;20176;-56
2021/06/09 00:25:38;;;;;;;8.73;7.93;;;18.30;99.90;;;;;;5074438;28;20182;-57
2021/06/09 00:28:05;;;;;;;8.80;7.80;;;18.30;99.90;;;;;;5073316;28;20207;-58
2021/06/09 00:30:33;;;;;;;9.33;8.43;;;18.40;99.90;;;;;;5074069;28;20168;-58
2021/06/09 00:33:00;;;;;;;9.33;8.40;;;18.40;99.90;;;;;;5072913;28;20167;-57
2021/06/09 00:35:26;;;;;;;8.50;7.70;;;18.30;99.90;;;;;;5073848;28;20164;-57
2021/06/09 00:37:52;;;;;;;8.83;8.03;;;18.30;99.90;;;;;;5074090;28;20208;-59
2021/06/09 00:40:19;;;;;;;8.93;8.07;;;18.20;99.90;;;;;;5074226;28;20241;-59
2021/06/09 00:43:05;;;;;;;9.10;8.30;;;18.10;99.90;;;;;;5072590;28;20260;-57
2021/06/09 00:45:31;;;;;;;9.87;8.10;;;18.20;99.90;;;;;;5074708;28;20175;-56
2021/06/09 00:47:57;;;;;;;9.43;8.30;;;18.20;99.90;;;;;;5073401;28;20280;-56
2021/06/09 00:50:22;;;;;;;9.47;8.57;;;18.20;99.90;;;;;;5073965;28;20336;-55
2021/06/09 00:52:48;;;;;;;8.87;8.07;;;18.20;99.90;;;;;;5072525;28;20169;-54
2021/06/09 00:55:14;;;;;;;8.20;7.50;;;18.20;99.90;;;;;;5081916;28;20194;-58
2021/06/09 00:57:41;;;;;;;9.23;8.33;;;18.10;99.90;;;;;;5091667;28;20705;-59
2021/06/09 01:00:08;;;;;;;9.37;8.17;;;18.10;99.90;;;;;;5072721;28;20909;-58
2021/06/09 01:02:34;;;;;;;8.73;7.93;;;18.10;99.90;;;;;;5074034;28;20680;-53
2021/06/09 01:05:00;;;;;;;9.07;8.17;;;18.10;99.90;;;;;;5073581;28;20170;-53
2021/06/09 01:07:25;;;;;;;8.63;7.83;;;18.10;99.90;;;;;;5073901;28;20290;-58
2021/06/09 01:09:51;;;;;;;8.57;7.60;;;18.10;99.90;;;;;;5073585;28;20171;-54
2021/06/09 01:12:16;;;;;;;8.70;7.83;;;18.10;99.90;;;;;;5072341;28;20556;-57
2021/06/09 01:14:42;;;;;;;8.80;8.00;;;18.10;99.90;;;;;;5073688;28;20184;-59
2021/06/09 01:17:07;;;;;;;8.80;8.00;;;18.00;99.90;;;;;;5073768;28;20198;-55
2021/06/09 01:19:33;;;;;;;8.93;7.97;;;18.10;99.90;;;;;;5072277;28;20176;-58
2021/06/09 01:21:59;;;;;;;8.57;7.77;;;18.00;99.90;;;;;;5073777;28;20206;-54
2021/06/09 01:24:24;;;;;;;9.27;8.37;;;18.10;99.90;;;;;;5073127;28;20632;-57
2021/06/09 01:26:50;;;;;;;9.00;8.20;;;18.00;99.90;;;;;;5072910;28;20550;-60
2021/06/09 01:29:17;;;;;;;8.80;8.00;;;18.00;99.90;;;;;;5073419;28;20174;-60
2021/06/09 01:31:43;;;;;;;9.30;8.30;;;18.00;99.90;;;;;;5072149;28;20645;-60
2021/06/09 01:34:09;;;;;;;9.50;8.70;;;17.90;99.90;;;;;;5073387;28;20179;-58
2021/06/09 01:36:37;;;;;;;9.20;8.30;;;17.90;99.90;;;;;;5073214;28;20647;-56
2021/06/09 01:39:29;;;;;;;9.00;8.10;;;17.90;99.90;;;;;;5071971;28;20199;-57
2021/06/09 01:41:55;;;;;;;8.63;7.93;;;17.90;99.90;;;;;;5071067;28;20230;-56
2021/06/09 01:44:21;;;;;;;8.67;7.77;;;17.80;99.90;;;;;;5073371;28;20175;-60
2021/06/09 01:46:47;;;;;;;8.80;8.00;;;17.80;99.90;;;;;;5073530;28;20199;-58
2021/06/09 01:49:15;;;;;;;9.07;8.27;;;17.80;99.90;;;;;;5072350;28;20176;-60
2021/06/09 01:51:41;;;;;;;9.43;8.53;;;17.80;99.90;;;;;;5074703;28;20265;-57
2021/06/09 01:54:09;;;;;;;8.67;7.87;;;17.80;99.90;;;;;;5077175;28;20168;-54
2021/06/09 01:56:35;;;;;;;9.30;8.50;;;17.80;99.90;;;;;;5076408;28;20219;-57
2021/06/09 01:59:11;;;;;;;9.67;8.77;;;17.70;99.90;;;;;;5076777;28;20172;-55
2021/06/09 02:01:37;;;;;;;9.73;8.77;;;17.70;99.90;;;;;;5076641;28;20204;-57
2021/06/09 02:04:03;;;;;;;9.03;8.23;;;17.60;99.90;;;;;;5076311;28;20174;-58
2021/06/09 02:06:29;;;;;;;9.63;8.73;;;17.50;99.90;;;;;;5077170;28;20195;-58
2021/06/09 02:08:55;;;;;;;10.17;8.50;;;17.50;99.90;;;;;;5076714;28;20186;-58
2021/06/09 02:11:20;;;;;;;9.30;8.40;;;17.40;99.90;;;;;;5076753;28;20530;-56
2021/06/09 02:13:46;;;;;;;8.77;8.03;;;17.40;99.90;;;;;;5075732;28;20269;-56
2021/06/09 02:16:11;;;;;;;8.93;8.07;;;17.40;99.90;;;;;;5076691;28;20228;-56
2021/06/09 02:18:39;;;;;;;9.93;8.03;;;17.40;99.90;;;;;;5075575;28;20257;-58
2021/06/09 02:21:05;;;;;;;8.93;8.13;;;17.40;99.90;;;;;;5076460;28;20210;-58
2021/06/09 02:23:35;;;;;;;9.77;8.87;;;17.40;99.90;;;;;;5076639;28;20182;-57
2021/06/09 02:26:01;;;;;;;9.60;8.57;;;17.40;99.90;;;;;;5077365;28;20219;-52
2021/06/09 02:28:30;;;;;;;9.50;8.50;;;17.30;99.90;;;;;;5076475;28;20209;-52
2021/06/09 02:30:56;;;;;;;9.40;8.60;;;17.30;99.90;;;;;;5076494;28;20274;-55
2021/06/09 02:33:24;;;;;;;9.53;8.63;;;17.30;99.90;;;;;;5075221;28;20281;-56
2021/06/09 02:35:51;;;;;;;10.03;8.70;;;17.30;99.90;;;;;;5076822;28;20170;-57
2021/06/09 02:38:18;;;;;;;9.23;8.43;;;17.30;99.90;;;;;;5075261;28;20264;-59
2021/06/09 02:40:46;;;;;;;9.00;8.20;;;17.30;99.90;;;;;;5076416;28;20182;-58
2021/06/09 02:43:13;;;;;;;9.47;8.57;;;17.30;99.90;;;;;;5075815;28;20166;-56
2021/06/09 02:45:39;;;;;;;9.00;8.10;;;17.30;99.90;;;;;;5075000;28;20698;-57
2021/06/09 02:48:08;;;;;;;9.47;8.47;;;17.20;99.90;;;;;;5076691;28;20281;-57
2021/06/09 02:50:35;;;;;;;9.50;8.50;;;17.20;99.90;;;;;;5075576;28;20174;-55
2021/06/09 02:53:34;;;;;;;9.43;8.53;;;17.20;99.90;;;;;;5075645;28;20676;-54
2021/06/09 02:56:18;;;;;;;8.77;7.97;;;17.20;99.90;;;;;;5053633;28;20191;-57
2021/06/09 02:59:13;;;;;;;9.33;8.43;;;17.10;99.90;;;;;;5053820;28;20166;-57
2021/06/09 03:01:42;;;;;;;8.60;7.80;;;17.10;99.90;;;;;;5052667;28;20223;-54
2021/06/09 03:04:21;;;;;;;9.50;8.53;;;17.00;99.90;;;;;;5035417;28;20182;-54
2021/06/09 03:06:56;;;;;;;8.43;7.63;;;17.00;99.90;;;;;;5054094;28;20211;-54
2021/06/09 03:09:34;;;;;;;8.90;8.10;;;17.10;99.90;;;;;;5052452;28;20266;-57
2021/06/09 03:12:10;;;;;;;9.37;8.43;;;17.10;99.90;;;;;;5053581;28;20221;-54
2021/06/09 03:15:12;;;;;;;9.40;8.50;;;17.10;99.90;;;;;;5053805;28;20243;-52
2021/06/09 03:17:46;;;;;;;9.20;8.40;;;17.00;99.90;;;;;;5053198;28;20198;-54
2021/06/09 03:20:49;;;;;;;9.70;8.67;;;16.90;99.90;;;;;;5053563;28;20765;-54
2021/06/09 03:23:45;;;;;;;10.43;9.17;;;16.90;99.90;;;;;;5052034;28;20234;-56
2021/06/09 03:26:35;;;;;;;10.30;9.30;;;16.80;99.90;;;;;;5053695;28;20234;-56
2021/06/09 03:29:18;;;;;;;10.10;9.20;;;16.70;99.90;;;;;;5052321;28;20199;-60
2021/06/09 03:31:58;;;;;;;10.47;9.47;;;16.60;99.90;;;;;;5058689;28;20186;-54
2021/06/09 03:34:32;;;;;;;9.87;8.97;;;16.60;99.90;;;;;;5074350;28;20187;-57
2021/06/09 03:37:00;;;;;;;9.50;8.60;;;16.60;99.90;;;;;;5075076;28;20187;-58
2021/06/09 03:39:27;;;;;;;9.93;9.03;;;16.50;99.90;;;;;;5074571;28;20173;-58
2021/06/09 03:41:56;;;;;;;10.87;9.87;;;16.50;99.90;;;;;;5074354;28;20195;-60
2021/06/09 03:44:29;;;;;;;10.37;9.37;;;16.60;99.90;;;;;;5074102;28;20183;-59
2021/06/09 03:46:57;;;;;;;10.97;9.93;;;16.60;99.90;;;;;;5075312;28;20186;-57
2021/06/09 03:49:25;;;;;;;10.47;9.37;;;16.60;99.90;;;;;;5075121;28;20186;-56
2021/06/09 03:51:51;;;;;;;10.40;9.47;;;16.60;99.90;;;;;;5073877;28;20174;-58
2021/06/09 03:54:18;;;;;;;10.00;9.00;;;16.60;99.90;;;;;;5074833;28;20179;-54
2021/06/09 03:56:46;;;;;;;10.80;9.90;;;16.60;99.90;;;;;;5074686;28;20305;-59
2021/06/09 03:59:13;;;;;;;11.57;10.37;;;16.60;99.90;;;;;;5075193;28;20190;-55
2021/06/09 04:01:41;;;;;;;10.60;9.60;;;16.60;99.90;;;;;;5074099;28;20221;-56
2021/06/09 04:04:09;;;;;;;12.40;10.47;;;16.60;99.90;;;;;;5074398;28;20178;-57
2021/06/09 04:06:39;;;;;;;11.63;10.53;;;16.60;99.90;;;;;;5074426;28;20216;-55
2021/06/09 04:09:06;;;;;;;10.43;9.43;;;16.70;99.90;;;;;;5073711;28;20240;-55
2021/06/09 04:11:33;;;;;;;11.27;10.27;;;16.70;99.90;;;;;;5074801;28;20174;-54
2021/06/09 04:13:59;;;;;;;10.87;9.87;;;16.80;99.90;;;;;;5074898;28;20171;-53
2021/06/09 04:16:32;;;;;;;10.60;9.63;;;16.80;99.90;;;;;;5073704;28;20273;-56
2021/06/09 04:18:58;;;;;;;10.53;9.57;;;16.90;99.90;;;;;;5073880;28;20553;-55
2021/06/09 04:21:27;;;;;;;10.20;9.13;;;16.90;99.90;;;;;;5074229;28;20677;-53
2021/06/09 04:23:53;;;;;;;9.93;9.13;;;17.00;99.90;;;;;;5073433;28;20178;-56
2021/06/09 04:26:19;;;;;;;9.53;8.60;;;17.10;99.90;;;;;;5074272;28;20166;-56
2021/06/09 04:28:46;;;;;;;9.30;8.40;;;17.20;99.90;;;;;;5074080;28;20499;-52
2021/06/09 04:31:13;;;;;;;10.13;8.80;;;17.20;99.90;;;;;;5073821;28;20492;-55
2021/06/09 04:33:40;;;;;;;9.40;8.50;;;17.20;99.90;;;;;;5073339;28;20217;-57
2021/06/09 04:36:11;;;;;;;10.50;9.60;;;17.40;99.90;;;;;;5074248;28;20181;-60
2021/06/09 04:38:38;;;;;;;11.67;10.67;;;17.50;99.90;;;;;;5072999;28;20212;-60
2021/06/09 04:41:03;;;;;;;10.60;9.70;;;17.40;99.90;;;;;;5074512;28;20203;-56
2021/06/09 04:43:29;;;;;;;10.73;9.80;;;17.40;99.90;;;;;;5074628;28;20542;-55
2021/06/09 04:45:55;;;;;;;13.57;12.30;;;17.30;99.90;;;;;;5072717;28;20195;-56
2021/06/09 04:48:20;;;;;;;12.60;11.30;;;17.30;99.90;;;;;;5074047;28;20194;-59
2021/06/09 04:50:48;;;;;;;12.97;11.77;;;17.30;99.90;;;;;;5073519;28;20166;-58
2021/06/09 04:53:18;;;;;;;13.07;11.87;;;17.40;99.90;;;;;;5073283;28;20178;-58
2021/06/09 04:55:49;;;;;;;12.30;11.17;;;17.40;99.90;;;;;;5073660;28;20170;-59
2021/06/09 04:58:17;;;;;;;13.17;11.77;;;17.40;99.90;;;;;;5073367;28;20723;-57
2021/06/09 05:00:44;;;;;;;13.03;11.87;;;17.30;99.90;;;;;;5073778;28;20245;-53
2021/06/09 05:03:09;;;;;;;12.40;11.30;;;17.30;99.90;;;;;;5073571;28;20174;-56
2021/06/09 05:05:35;;;;;;;11.53;10.43;;;17.20;99.90;;;;;;5073779;28;20176;-56
2021/06/09 05:08:01;;;;;;;11.40;10.30;;;17.20;99.90;;;;;;5074180;28;20186;-55
2021/06/09 05:10:27;;;;;;;11.90;10.87;;;17.30;99.90;;;;;;5073673;28;20171;-59
2021/06/09 05:13:05;;;;;;;11.67;10.30;;;17.40;99.90;;;;;;5073420;28;20235;-60
2021/06/09 05:15:41;;;;;;;12.47;11.37;;;17.50;99.90;;;;;;5073514;28;20519;-55
2021/06/09 05:18:17;;;;;;;12.03;10.90;;;17.70;99.90;;;;;;5072522;28;20207;-54
2021/06/09 05:20:45;;;;;;;12.57;11.37;;;17.80;99.90;;;;;;5085384;28;20274;-56
2021/06/09 05:23:16;;;;;;;12.20;11.00;;;18.00;99.90;;;;;;5092195;28;20316;-58
2021/06/09 05:25:44;;;;;;;13.43;12.13;;;18.20;99.90;;;;;;5094188;28;20165;-57
2021/06/09 05:28:12;;;;;;;12.17;11.07;;;18.30;99.90;;;;;;5097100;28;20654;-59
2021/06/09 05:30:39;;;;;;;13.40;12.10;;;18.30;99.90;;;;;;5085922;28;20181;-55
2021/06/09 05:33:07;;;;;;;12.70;11.60;;;18.50;99.90;;;;;;5091710;28;20173;-59
2021/06/09 05:35:33;;;;;;;14.17;12.83;;;18.60;99.90;;;;;;5095439;28;20188;-59
2021/06/09 05:37:59;;;;;;;13.13;11.93;;;18.60;99.90;;;;;;5096793;28;20260;-57
2021/06/09 05:40:25;;;;;;;12.43;11.37;;;18.60;99.90;;;;;;5097351;28;20640;-58
2021/06/09 05:42:51;;;;;;;12.60;11.50;;;18.80;99.90;;;;;;5097209;28;20666;-58
2021/06/09 05:45:27;;;;;;;13.20;12.00;;;18.90;99.90;;;;;;5097978;28;20181;-60
2021/06/09 05:47:53;;;;;;;12.53;11.33;;;19.00;99.90;;;;;;5096802;28;20201;-60
2021/06/09 05:50:25;;;;;;;13.10;11.90;;;19.10;99.90;;;;;;5097467;28;20186;-56
2021/06/09 05:52:53;;;;;;;12.93;11.73;;;19.10;99.90;;;;;;5096423;28;20193;-60
2021/06/09 05:55:21;;;;;;;13.90;12.60;;;19.10;99.90;;;;;;5097438;28;20189;-59
2021/06/09 05:57:48;;;;;;;13.17;11.90;;;19.10;99.90;;;;;;5096848;28;20190;-58
2021/06/09 06:00:16;;;;;;;12.87;11.77;;;19.10;99.90;;;;;;5096539;28;20265;-57
2021/06/09 06:02:42;;;;;;;12.60;11.50;;;19.20;99.90;;;;;;5094784;28;20308;-57
2021/06/09 06:05:09;;;;;;;14.17;12.97;;;19.30;99.90;;;;;;5094903;28;20213;-57
2021/06/09 06:07:35;;;;;;;12.23;11.13;;;19.40;99.90;;;;;;5095566;28;20202;-56
2021/06/09 06:10:06;;;;;;;12.93;11.67;;;19.50;99.90;;;;;;5096611;28;20257;-52
2021/06/09 06:12:34;;;;;;;12.70;11.60;;;19.70;99.90;;;;;;5096443;28;20166;-56
2021/06/09 06:15:00;;;;;;;12.47;11.17;;;19.80;99.90;;;;;;5095863;28;20198;-57
2021/06/09 06:17:25;;;;;;;12.93;11.83;;;19.90;99.90;;;;;;5097396;28;20206;-57
2021/06/09 06:19:51;;;;;;;12.30;11.23;;;20.00;99.90;;;;;;5097053;28;20249;-53
2021/06/09 06:22:19;;;;;;;12.77;11.67;;;20.00;99.90;;;;;;5096312;28;20206;-59
2021/06/09 06:24:47;;;;;;;12.70;11.50;;;20.00;99.90;;;;;;5097228;28;20178;-55
2021/06/09 06:27:13;;;;;;;12.87;11.57;;;20.00;99.90;;;;;;5095811;28;20206;-58
2021/06/09 06:29:40;;;;;;;11.53;10.43;;;20.00;99.90;;;;;;5097462;28;20724;-55
2021/06/09 06:32:08;;;;;;;13.07;11.90;;;20.20;99.90;;;;;;5096669;28;20207;-55
2021/06/09 06:34:49;;;;;;;12.40;11.30;;;20.30;99.90;;;;;;5095985;28;20634;-59
2021/06/09 06:37:16;;;;;;;15.40;13.90;;;20.50;99.90;;;;;;5096246;28;20266;-57
2021/06/09 06:39:42;;;;;;;12.07;10.97;;;20.60;99.90;;;;;;5096966;28;20178;-58
2021/06/09 06:42:09;;;;;;;13.17;11.90;;;20.60;99.90;;;;;;5095473;28;20578;-57
2021/06/09 06:44:35;;;;;;;12.53;11.33;;;20.70;99.90;;;;;;5096753;28;20182;-54
2021/06/09 06:47:19;;;;;;;13.43;12.13;;;20.90;99.90;;;;;;5097614;28;20200;-58
2021/06/09 06:49:45;;;;;;;11.60;10.50;;;21.00;99.90;;;;;;5097085;28;20256;-56
2021/06/09 06:52:11;;;;;;;12.30;11.20;;;20.90;99.90;;;;;;5096180;28;20245;-57
2021/06/09 06:54:37;;;;;;;11.73;10.70;;;20.90;99.90;;;;;;5096388;28;20641;-59
2021/06/09 06:57:03;;;;;;;12.27;11.03;;;20.90;99.90;;;;;;5095106;28;20201;-57
2021/06/09 06:59:29;;;;;;;12.53;11.43;;;20.90;99.90;;;;;;5096279;28;20181;-56
2021/06/09 07:01:56;;;;;;;13.80;12.60;;;20.90;99.90;;;;;;5096003;28;20297;-56
2021/06/09 07:04:23;;;;;;;13.70;12.43;;;20.90;99.90;;;;;;5096323;28;20170;-54
2021/06/09 07:06:50;;;;;;;13.77;12.53;;;20.90;99.90;;;;;;5095969;28;20194;-55
2021/06/09 07:09:17;;;;;;;11.43;10.43;;;21.00;99.90;;;;;;5096146;28;20381;-58
2021/06/09 07:11:45;;;;;;;10.77;9.87;;;21.10;99.90;;;;;;5095960;28;20264;-55
2021/06/09 07:14:11;;;;;;;11.10;10.10;;;21.30;99.90;;;;;;5096408;28;20170;-58
2021/06/09 07:16:39;;;;;;;10.90;9.85;;;21.50;99.90;;;;;;5095438;28;20545;-54
2021/06/09 07:19:08;;;;;;;11.70;10.70;;;21.60;99.90;;;;;;5096520;28;20186;-58
2021/06/09 07:21:34;;;;;;;11.02;10.05;;;21.60;99.90;;;;;;5095804;28;20252;-55
2021/06/09 07:24:02;;;;;;;11.77;10.60;;;21.60;99.90;;;;;;5096404;28;20606;-54
2021/06/09 07:26:36;;;;;;;11.60;10.60;;;21.60;99.90;;;;;;5095644;28;20201;-58
2021/06/09 07:29:03;;;;;;;10.77;9.88;;;21.60;99.90;;;;;;5095934;28;20166;-58
2021/06/09 07:31:32;;;;;;;12.05;10.95;;;21.60;99.90;;;;;;5095930;28;20208;-59
2021/06/09 07:33:58;;;;;;;10.77;9.88;;;21.60;99.90;;;;;;5096018;28;20176;-53
2021/06/09 07:36:29;;;;;;;10.27;9.38;;;21.50;99.90;;;;;;5096088;28;20203;-56
2021/06/09 07:39:01;;;;;;;9.57;8.77;;;21.70;99.90;;;;;;5095549;28;20203;-51
2021/06/09 07:41:29;;;;;;;10.82;9.82;;;21.80;99.90;;;;;;5093875;28;20203;-55
2021/06/09 07:43:59;;;;;;;10.65;9.65;;;21.90;99.90;;;;;;5095444;28;20195;-56
2021/06/09 07:46:28;;;;;;;10.88;9.98;;;22.00;99.90;;;;;;5094655;28;20188;-55
2021/06/09 07:48:57;;;;;;;11.30;10.30;;;22.00;99.90;;;;;;5095214;28;20242;-54
2021/06/09 07:51:24;;;;;;;10.95;9.98;;;22.40;99.90;;;;;;5095312;28;20204;-55
2021/06/09 07:53:53;;;;;;;11.13;10.05;;;22.00;99.90;;;;;;5095379;28;20184;-52
2021/06/09 07:56:20;;;;;;;10.95;9.95;;;22.00;99.90;;;;;;5095664;28;20203;-54
2021/06/09 07:58:48;;;;;;;11.05;10.07;;;22.00;99.90;;;;;;5095076;28;20263;-56
2021/06/09 08:01:14;;;;;;;10.98;9.98;;;22.10;99.90;;;;;;5094830;28;20246;-58
2021/06/09 08:03:41;;;;;;;10.73;9.80;;;22.20;99.90;;;;;;5094880;28;20657;-58
2021/06/09 08:06:07;;;;;;;9.90;8.45;;;22.30;99.90;;;;;;5095118;28;20173;-53
2021/06/09 08:08:33;;;;;;;9.88;9.07;;;22.60;99.90;;;;;;5094846;28;20645;-55
2021/06/09 08:10:59;;;;;;;11.15;9.23;;;22.60;99.90;;;;;;5094911;28;20175;-57
2021/06/09 08:13:25;;;;;;;9.57;8.77;;;22.50;99.90;;;;;;5094542;28;20185;-55
2021/06/09 08:15:52;;;;;;;9.68;8.77;;;22.50;99.90;;;;;;5093771;28;20193;-55
2021/06/09 08:18:18;;;;;;;10.02;8.88;;;22.50;99.90;;;;;;5093988;28;20544;-54
2021/06/09 08:21:05;;;;;;;9.38;8.48;;;22.50;99.90;;;;;;5075595;28;20258;-58
2021/06/09 08:23:32;;;;;;;8.52;7.82;;;22.40;99.90;;;;;;5092574;28;20216;-53
2021/06/09 08:25:58;;;;;;;9.75;8.95;;;22.40;99.90;;;;;;5094481;28;20174;-53
2021/06/09 08:28:33;;;;;;;9.48;8.65;;;22.50;99.90;;;;;;5094645;28;20553;-57
2021/06/09 08:30:59;;;;;;;9.20;8.40;;;22.60;99.90;;;;;;5091413;28;20224;-55
2021/06/09 08:33:24;;;;;;;8.60;7.60;;;22.60;99.90;;;;;;5055711;28;20529;-56
2021/06/09 08:35:50;;;;;;;8.77;7.43;;;22.70;99.90;;;;;;5093678;28;20172;-57
2021/06/09 08:38:16;;;;;;;8.23;7.47;;;22.90;99.90;;;;;;5094154;28;20557;-57
2021/06/09 08:40:42;;;;;;;9.00;8.20;;;23.00;99.90;;;;;;5094443;28;20205;-56
2021/06/09 08:43:09;;;;;;;7.93;7.22;;;23.20;99.90;;;;;;5094026;28;20229;-58
2021/06/09 08:45:35;;;;;;;7.57;6.93;;;23.40;99.90;;;;;;5094543;28;20170;-55
2021/06/09 08:48:01;;;;;;;7.22;6.53;;;23.50;99.90;;;;;;5094063;28;20193;-56
2021/06/09 08:50:27;;;;;;;6.93;6.30;;;23.70;99.90;;;;;;5094871;28;20174;-57
2021/06/09 08:52:54;;;;;;;7.30;6.63;;;24.00;99.90;;;;;;5094285;28;20545;-58
2021/06/09 08:55:20;;;;;;;6.22;5.72;;;24.00;99.90;;;;;;5094483;28;20174;-58
2021/06/09 08:57:46;;;;;;;6.60;6.00;;;24.20;99.90;;;;;;5094041;28;20225;-57
2021/06/09 09:00:14;;;;;;;7.05;6.45;;;24.30;99.90;;;;;;5093697;28;20538;-56
2021/06/09 09:02:40;;;;;;;6.75;6.15;;;24.50;99.90;;;;;;5093839;28;20213;-54
2021/06/09 09:05:10;;;;;;;6.75;6.15;;;24.40;99.90;;;;;;5093809;28;20174;-57
2021/06/09 09:07:36;;;;;;;6.85;6.25;;;24.40;99.90;;;;;;5094021;28;20189;-57
2021/06/09 09:10:04;;;;;;;6.90;6.20;;;24.60;99.90;;;;;;5094202;28;20682;-58
2021/06/09 09:12:30;;;;;;;8.25;6.80;;;24.80;99.90;;;;;;5093715;28;20720;-59
2021/06/09 09:14:58;;;;;;;8.38;7.03;;;24.90;99.90;;;;;;5094366;28;20200;-57
2021/06/09 09:17:23;;;;;;;7.18;6.57;;;24.90;99.90;;;;;;5092725;28;20282;-54
2021/06/09 09:19:51;;;;;;;7.80;7.00;;;24.90;99.90;;;;;;5093753;28;20567;-56
2021/06/09 09:22:30;;;;;;;6.97;6.38;;;24.80;99.90;;;;;;5092795;28;20201;-56
2021/06/09 09:24:56;;;;;;;8.05;6.65;;;25.00;99.90;;;;;;5093953;28;20154;-55
2021/06/09 09:27:31;;;;;;;7.75;6.70;;;25.10;99.90;;;;;;5093871;28;20190;-58
2021/06/09 09:30:08;;;;;;;7.40;6.75;;;25.30;99.90;;;;;;5093888;28;20613;-58
2021/06/09 09:32:37;;;;;;;7.50;6.80;;;25.40;99.90;;;;;;5092559;28;20216;-55
2021/06/09 09:35:04;;;;;;;7.55;6.95;;;25.50;99.90;;;;;;5093671;28;20633;-53
2021/06/09 09:37:32;;;;;;;7.53;6.10;;;25.30;99.90;;;;;;5092938;28;20641;-57
2021/06/09 09:40:18;;;;;;;7.40;6.70;;;25.30;99.90;;;;;;5093735;28;20169;-55
2021/06/09 09:42:47;;;;;;;7.05;6.35;;;25.40;99.90;;;;;;5093942;28;20190;-58
2021/06/09 09:45:21;;;;;;;7.63;6.78;;;25.50;99.90;;;;;;5092586;28;20196;-58
2021/06/09 09:48:07;;;;;;;7.20;6.53;;;25.50;99.90;;;;;;5093423;28;20197;-58
2021/06/09 09:50:37;;;;;;;6.70;6.05;;;25.50;99.90;;;;;;5092849;28;20170;-56
2021/06/09 09:53:22;;;;;;;7.10;6.50;;;25.30;99.90;;;;;;5093316;28;20649;-53
2021/06/09 09:56:11;;;;;;;6.13;5.63;;;25.20;99.90;;;;;;5092344;28;20181;-55
2021/06/09 09:58:51;;;;;;;6.45;5.80;;;25.20;99.90;;;;;;5093510;28;20597;-56
2021/06/09 10:01:23;;;;;;;6.70;6.10;;;25.20;99.90;;;;;;5093762;28;20201;-58
2021/06/09 10:03:54;;;;;;;6.80;6.20;;;25.30;99.90;;;;;;5090776;28;20162;-58
2021/06/09 10:06:25;;;;;;;7.30;6.60;;;25.50;99.90;;;;;;5073391;28;20163;-56
2021/06/09 10:08:52;;;;;;;6.13;5.63;;;25.60;99.90;;;;;;5072465;28;20167;-55
2021/06/09 10:11:19;;;;;;;6.95;6.35;;;25.70;99.90;;;;;;5073214;28;20210;-53
2021/06/09 10:13:45;;;;;;;7.40;6.65;;;25.80;99.90;;;;;;5077259;28;20712;-55
2021/06/09 10:16:30;;;;;;;6.50;5.93;;;25.60;99.90;;;;;;5077217;28;20178;-56
2021/06/09 10:19:02;;;;;;;6.18;5.68;;;25.80;99.90;;;;;;5076466;28;20190;-58
2021/06/09 10:21:29;;;;;;;8.57;7.35;;;26.10;99.90;;;;;;5076473;28;20202;-54
2021/06/09 10:24:01;;;;;;;9.20;8.40;;;26.30;99.90;;;;;;5076858;28;20198;-53
2021/06/09 10:26:27;;;;;;;8.45;7.75;;;25.90;99.90;;;;;;5075666;28;20718;-55
2021/06/09 10:29:07;;;;;;;8.68;7.97;;;25.80;99.90;;;;;;5077298;28;20174;-56
2021/06/09 10:31:43;;;;;;;8.70;8.00;;;25.70;99.90;;;;;;5077165;28;20186;-58
2021/06/09 10:34:09;;;;;;;8.45;7.75;;;25.60;99.90;;;;;;5076737;28;20178;-58
2021/06/09 10:36:39;;;;;;;7.82;7.13;;;25.50;99.90;;;;;;5075690;28;20210;-59
2021/06/09 10:39:05;;;;;;;7.32;6.40;;;25.50;99.90;;;;;;5076953;28;20198;-56
2021/06/09 10:41:31;;;;;;;8.18;7.45;;;25.50;99.90;;;;;;5075290;28;20206;-56
2021/06/09 10:44:02;;;;;;;7.95;7.22;;;25.50;99.90;;;;;;5076451;28;20197;-58
2021/06/09 10:46:28;;;;;;;8.30;7.50;;;25.30;99.90;;;;;;5076348;28;20356;-56
2021/06/09 10:48:59;;;;;;;8.25;7.35;;;25.30;99.90;;;;;;5076290;28;20673;-57
2021/06/09 10:51:26;;;;;;;8.13;7.43;;;25.20;99.90;;;;;;5088702;28;20510;-58
2021/06/09 10:53:52;;;;;;;8.85;7.03;;;25.20;99.90;;;;;;5095988;28;20199;-58
2021/06/09 10:56:19;;;;;;;7.45;6.85;;;25.20;99.90;;;;;;5095783;28;20162;-53
2021/06/09 10:58:46;;;;;;;7.55;6.95;;;25.30;99.90;;;;;;5096664;28;20174;-55
2021/06/09 11:01:13;;;;;;;7.00;6.40;;;25.40;99.90;;;;;;5094804;28;20209;-55
2021/06/09 11:03:43;;;;;;;8.50;6.40;;;25.80;99.90;;;;;;5096448;28;20625;-58
2021/06/09 11:06:09;;;;;;;6.60;6.00;;;26.20;99.90;;;;;;5096654;28;20549;-59
2021/06/09 11:08:34;;;;;;;7.03;4.60;;;26.60;99.90;;;;;;5096840;28;20673;-59
2021/06/09 11:11:00;;;;;;;4.38;3.97;;;27.00;99.90;;;;;;5089975;28;20174;-59
2021/06/09 11:13:37;;;;;;;5.80;3.80;;;27.10;99.90;;;;;;5089492;27;20221;-55
2021/06/09 11:16:11;;;;;;;5.93;3.70;;;26.80;99.90;;;;;;5086644;28;20177;-57
2021/06/09 11:18:42;;;;;;;4.70;3.45;;;26.50;99.90;;;;;;5079605;28;20159;-56
2021/06/09 11:21:09;;;;;;;4.70;3.95;;;26.10;99.90;;;;;;5091942;28;20171;-55
2021/06/09 11:23:40;;;;;;;5.13;3.97;;;25.80;99.90;;;;;;5081177;28;20190;-58
2021/06/09 11:26:22;;;;;;;5.93;4.00;;;25.40;99.90;;;;;;5086586;28;20281;-56
2021/06/09 11:28:47;;;;;;;5.25;3.72;;;25.00;99.90;;;;;;5079722;28;20171;-58
2021/06/09 11:31:25;;;;;;;4.38;3.88;;;24.70;99.90;;;;;;5075497;28;20526;-55
2021/06/09 11:34:02;;;;;;;4.45;3.75;;;24.60;99.90;;;;;;5090871;28;20669;-57
2021/06/09 11:36:34;;;;;;;4.15;3.75;;;24.50;99.90;;;;;;5083337;28;20209;-52
2021/06/09 11:39:17;;;;;;;4.30;4.00;;;24.30;99.90;;;;;;5081703;27;20210;-54
2021/06/09 11:41:45;;;;;;;4.03;3.72;;;24.00;99.90;;;;;;5089597;28;20192;-57
2021/06/09 11:44:23;;;;;;;6.00;4.50;;;23.90;99.90;;;;;;5093356;28;20231;-56
2021/06/09 11:46:48;;;;;;;4.68;4.28;;;23.70;99.90;;;;;;5095007;28;20190;-56
2021/06/09 11:49:25;;;;;;;5.93;5.13;;;23.50;99.90;;;;;;5095973;28;20185;-53
2021/06/09 11:51:58;;;;;;;7.32;4.90;;;23.40;99.90;;;;;;5092027;28;20569;-55
2021/06/09 11:54:31;;;;;;;5.38;4.43;;;23.10;99.90;;;;;;5076400;28;20534;-56
2021/06/09 11:57:12;;;;;;;5.75;4.97;;;22.90;99.90;;;;;;5086957;28;20213;-55
2021/06/09 11:59:40;;;;;;;5.55;4.93;;;22.90;99.90;;;;;;5086392;28;20201;-56
2021/06/09 12:02:24;;;;;;;4.40;4.00;;;22.90;99.90;;;;;;5078287;28;20198;-55
2021/06/09 12:04:52;;;;;;;7.05;4.97;;;22.90;99.90;;;;;;5095373;28;20177;-53
2021/06/09 12:07:23;;;;;;;5.40;4.68;;;23.00;99.90;;;;;;5092867;28;20293;-56
2021/06/09 12:09:51;;;;;;;6.00;5.30;;;23.00;99.90;;;;;;5072882;28;20190;-56
2021/06/09 12:12:25;;;;;;;8.10;5.97;;;23.10;99.90;;;;;;5072508;28;20171;-56
2021/06/09 12:14:53;;;;;;;7.50;6.00;;;22.90;99.90;;;;;;5072715;28;20220;-53
2021/06/09 12:17:26;;;;;;;6.30;5.70;;;22.80;99.90;;;;;;5071383;28;20198;-58
2021/06/09 12:20:06;;;;;;;5.63;5.13;;;22.90;99.90;;;;;;5072329;28;20258;-53
2021/06/09 12:22:33;;;;;;;5.85;4.80;;;23.10;99.90;;;;;;5072312;28;20210;-53
2021/06/09 12:25:03;;;;;;;6.40;5.05;;;23.10;99.90;;;;;;5071967;28;20201;-55
2021/06/09 12:27:31;;;;;;;5.32;4.85;;;23.20;99.90;;;;;;5073176;28;20520;-53
2021/06/09 12:29:58;;;;;;;4.63;4.22;;;23.10;99.90;;;;;;5074730;28;20175;-53
2021/06/09 12:32:27;;;;;;;4.88;4.45;;;23.10;99.90;;;;;;5073131;28;20228;-53
2021/06/09 12:35:05;;;;;;;7.15;4.85;;;23.10;99.90;;;;;;5074129;28;20175;-57
2021/06/09 12:37:32;;;;;;;4.95;4.35;;;23.00;99.90;;;;;;5073900;28;20670;-53
2021/06/09 12:40:01;;;;;;;4.60;4.20;;;23.00;99.90;;;;;;5074225;28;20183;-51
2021/06/09 12:42:28;;;;;;;4.50;4.10;;;22.90;99.90;;;;;;5072630;28;20690;-50
2021/06/09 12:44:54;;;;;;;4.70;4.20;;;23.00;99.90;;;;;;5074144;28;20272;-54
2021/06/09 12:47:31;;;;;;;5.07;4.30;;;23.20;99.90;;;;;;5073413;28;20670;-57
2021/06/09 12:50:09;;;;;;;4.38;4.00;;;23.30;99.90;;;;;;5074069;28;20555;-57
2021/06/09 12:52:34;;;;;;;5.05;4.00;;;23.70;99.90;;;;;;5073807;28;20212;-55